ΕΜΥ, Εθνική Μετεωρολογική Υπηρεσία - Δελτία Καιρού, Προγνώσεις

ΑΕΡΟΝΑΥΤΙΛΙΑ

GREEK AIRPORTS CODES

LGKA 241100Z AUTO 02009KT 340V050 //// // ////// M03/M16 Q1023 RE//=

EUROPEAN AIRPORTS CODES

LFPO 241130Z 10006KT CAVOK 05/01 Q1031 NOSIG=